This is the latest recevied weather packets stored in our database for station/object KC0FGX-1. If no packets are shown the sender has not sent any weather packets the latest 10 day(s).
| Time | Temp. | Humidity | Pressure | Rain* | Wind** | Luminosity | Snow |
|---|---|---|---|---|---|---|---|
| 1777826186 | 17.22° C | 50% | 1010 hPa | 0 mm | - | - | - |
| 1777823186 | 16.11° C | 51% | 1010.1 hPa | 0 mm | - | - | - |
| 1777821186 | 15° C | 57% | 1011.2 hPa | 0 mm | - | - | - |
| 1777817187 | 12.78° C | 58% | 1012.5 hPa | 0 mm | - | - | - |
| 1777811186 | 9.44° C | 70% | 1012.6 hPa | 0 mm | - | - | - |
| 1777806186 | 7.78° C | 69% | 1013 hPa | 0 mm | - | - | - |
| 1777803185 | 7.78° C | 68% | 1013.3 hPa | 0 mm | - | - | - |
| 1777802186 | 7.78° C | 68% | 1013.1 hPa | 0 mm | - | - | - |
| 1777801185 | 7.78° C | 69% | 1013.4 hPa | 0 mm | - | - | - |
| 1777800186 | 7.22° C | 68% | 1013.6 hPa | 0 mm | - | - | - |
| 1777799186 | 7.22° C | 70% | 1013.5 hPa | 0 mm | - | - | - |
| 1777797186 | 6.67° C | 72% | 1013.7 hPa | 0 mm | - | - | - |
| 1777796185 | 6.11° C | 73% | 1013.9 hPa | 0 mm | - | - | - |
| 1777795186 | 5.56° C | 75% | 1014.1 hPa | 0 mm | - | - | - |
| 1777793186 | 5.56° C | 74% | 1014.4 hPa | 0 mm | - | - | - |
| 1777792185 | 5.56° C | 75% | 1014.7 hPa | 0 mm | - | - | - |
| 1777790186 | 5.56° C | 75% | 1014.9 hPa | 0 mm | - | - | - |
| 1777789185 | 5.56° C | 76% | 1015 hPa | 0 mm | - | - | - |
| 1777788185 | 5° C | 77% | 1015.2 hPa | 0 mm | - | - | - |
| 1777787185 | 4.44° C | 80% | 1015.3 hPa | 0 mm | - | - | - |
| 1777786956 | 4.44° C | 80% | 1015.3 hPa | 0 mm | - | - | - |
| 1777785956 | 5° C | 80% | 1015.3 hPa | 0 mm | - | - | - |
| 1777784957 | 4.44° C | 83% | 1015.5 hPa | 0 mm | - | - | - |
| 1777783956 | 4.44° C | 82% | 1015.7 hPa | 0 mm | - | - | - |
| 1777781956 | 5° C | 80% | 1015.9 hPa | 0 mm | - | - | - |
* Rain latest hour (hover to see other rain measurements)
** Current wind speed in m/s (hover to see current wind gust speed)